createdAt,value
2018-11-20T00:00:40.872Z,12.13
2018-11-20T00:03:49.475Z,12.07
2018-11-20T00:06:58.277Z,11.93
2018-11-20T00:10:06.641Z,12.30
2018-11-20T00:13:15.005Z,11.73
2018-11-20T00:16:23.350Z,11.63
2018-11-20T00:19:31.737Z,10.33
2018-11-20T00:22:40.114Z,11.90
2018-11-20T00:25:48.480Z,10.90
2018-11-20T00:28:56.845Z,10.37
2018-11-20T00:32:05.212Z,11.07
2018-11-20T00:35:13.588Z,10.97
2018-11-20T00:38:22.381Z,11.40
2018-11-20T00:41:30.741Z,11.97
2018-11-20T00:44:40.489Z,12.70
2018-11-20T00:47:48.884Z,11.30
2018-11-20T00:50:57.655Z,11.00
2018-11-20T00:53:56.742Z,12.13
2018-11-20T00:57:06.016Z,13.00
2018-11-20T01:00:14.828Z,11.40
2018-11-20T01:03:23.188Z,12.07
2018-11-20T01:06:22.538Z,12.23
2018-11-20T01:09:30.910Z,11.90
2018-11-20T01:12:39.299Z,11.27
2018-11-20T01:15:47.672Z,11.40
2018-11-20T01:18:56.028Z,12.17
2018-11-20T01:22:04.392Z,11.50
2018-11-20T01:25:12.762Z,13.00
2018-11-20T01:28:21.123Z,12.63
2018-11-20T01:31:29.505Z,12.27
2018-11-20T01:34:37.929Z,11.07
2018-11-20T01:37:35.427Z,11.47
2018-11-20T01:40:24.915Z,10.50
2018-11-20T01:43:04.456Z,10.13
2018-11-20T01:45:46.985Z,12.70
2018-11-20T01:48:34.906Z,12.23
2018-11-20T01:51:38.726Z,12.00
2018-11-20T01:54:47.387Z,12.97
2018-11-20T01:57:55.801Z,11.37
2018-11-20T02:01:04.151Z,11.60
2018-11-20T02:04:12.604Z,11.67
2018-11-20T02:07:21.086Z,12.83
2018-11-20T02:10:29.499Z,10.90
2018-11-20T02:14:16.220Z,10.77
2018-11-20T02:17:45.120Z,11.27
2018-11-20T02:20:57.795Z,12.53
2018-11-20T02:23:35.933Z,10.73
2018-11-20T02:26:17.253Z,11.23
2018-11-20T02:29:00.104Z,13.93
2018-11-20T02:32:04.372Z,10.90
2018-11-20T02:35:05.551Z,11.93
2018-11-20T02:37:53.042Z,13.07
2018-11-20T02:40:30.052Z,12.60
2018-11-20T02:43:16.847Z,11.47
2018-11-20T02:46:04.437Z,11.40
2018-11-20T02:49:13.023Z,11.37
2018-11-20T02:52:21.397Z,11.80
2018-11-20T02:55:29.772Z,11.87
2018-11-20T02:58:38.131Z,13.03
2018-11-20T03:01:46.593Z,11.90
2018-11-20T03:04:54.950Z,12.97
2018-11-20T03:07:57.675Z,13.17
2018-11-20T03:11:06.023Z,11.47
2018-11-20T03:14:14.419Z,11.50
2018-11-20T03:17:23.297Z,11.73
2018-11-20T03:20:31.689Z,13.53
2018-11-20T03:23:40.035Z,13.33
2018-11-20T03:26:49.028Z,12.57
2018-11-20T03:30:35.431Z,12.83
2018-11-20T03:33:43.809Z,14.63
2018-11-20T03:36:52.502Z,14.83
2018-11-20T03:40:00.871Z,13.33
2018-11-20T03:42:56.912Z,13.57
2018-11-20T03:46:05.272Z,14.80
2018-11-20T03:49:13.649Z,15.37
2018-11-20T03:52:13.370Z,14.70
2018-11-20T03:55:21.757Z,14.47
2018-11-20T03:58:30.402Z,16.23
2018-11-20T04:01:38.765Z,15.43
2018-11-20T04:04:46.832Z,13.33
2018-11-20T04:07:55.176Z,15.23
2018-11-20T04:11:03.989Z,14.13
2018-11-20T04:14:12.798Z,15.03
2018-11-20T04:17:21.170Z,15.00
2018-11-20T04:20:29.790Z,15.33
2018-11-20T04:23:38.582Z,17.30
2018-11-20T04:26:46.960Z,15.37
2018-11-20T04:29:44.350Z,15.60
2018-11-20T04:32:52.752Z,16.53
2018-11-20T04:35:50.427Z,15.83
2018-11-20T04:38:59.061Z,14.67
2018-11-20T04:41:58.063Z,14.30
2018-11-20T04:45:00.937Z,14.80
2018-11-20T04:47:50.854Z,14.80
2018-11-20T04:50:49.063Z,13.07
2018-11-20T04:53:40.937Z,15.47
2018-11-20T04:56:29.213Z,14.40
2018-11-20T04:59:37.772Z,14.80
2018-11-20T05:02:46.224Z,14.20
2018-11-20T05:05:45.918Z,13.80
2018-11-20T05:08:54.325Z,15.60
2018-11-20T05:11:55.638Z,17.57
2018-11-20T05:15:04.014Z,13.60
2018-11-20T05:18:12.407Z,13.83
2018-11-20T05:21:14.187Z,14.80
2018-11-20T05:24:22.559Z,14.97
2018-11-20T05:27:30.930Z,14.50
2018-11-20T05:30:39.340Z,13.97
2018-11-20T05:33:47.687Z,16.83
2018-11-20T05:36:56.061Z,16.17
2018-11-20T05:40:04.910Z,14.47
2018-11-20T05:43:13.237Z,15.03
2018-11-20T05:46:21.620Z,15.43
2018-11-20T05:49:30.012Z,15.40
2018-11-20T05:52:38.361Z,15.73
2018-11-20T05:55:46.743Z,15.43
2018-11-20T05:58:55.156Z,15.13
2018-11-20T06:02:03.849Z,15.20
2018-11-20T06:05:12.244Z,15.90
2018-11-20T06:08:09.134Z,15.90
2018-11-20T06:11:17.524Z,17.17
2018-11-20T06:14:25.937Z,15.27
2018-11-20T06:20:44.286Z,15.40
2018-11-20T06:23:52.666Z,15.67
2018-11-20T06:27:01.340Z,16.87
2018-11-20T06:30:09.689Z,16.40
2018-11-20T06:33:18.066Z,14.80
2018-11-20T06:36:26.522Z,15.87
2018-11-20T06:39:34.921Z,15.03
2018-11-20T06:42:43.307Z,15.40
2018-11-20T06:45:42.963Z,15.43
2018-11-20T06:48:51.352Z,17.03
2018-11-20T06:51:59.725Z,16.73
2018-11-20T06:55:08.130Z,15.60
2018-11-20T06:58:07.042Z,16.53
2018-11-20T07:01:15.433Z,16.87
2018-11-20T07:04:23.881Z,16.63
2018-11-20T07:07:32.421Z,17.50
2018-11-20T07:10:40.633Z,17.03
2018-11-20T07:13:51.104Z,16.73
2018-11-20T07:17:01.181Z,15.43
2018-11-20T07:20:09.571Z,18.10
2018-11-20T07:23:18.390Z,16.37
2018-11-20T07:26:26.794Z,15.93
2018-11-20T07:29:32.353Z,14.53
2018-11-20T07:32:40.718Z,16.33
2018-11-20T07:35:36.165Z,17.10
2018-11-20T07:38:44.534Z,18.27
2018-11-20T07:41:44.485Z,16.90
2018-11-20T07:44:52.983Z,16.87
2018-11-20T07:48:01.383Z,15.87
2018-11-20T07:51:02.877Z,17.10
2018-11-20T07:54:11.241Z,16.50
2018-11-20T07:57:20.171Z,16.10
2018-11-20T08:00:28.533Z,17.47
2018-11-20T08:03:37.233Z,17.23
2018-11-20T08:06:45.612Z,16.80
2018-11-20T08:09:53.993Z,15.97
2018-11-20T08:13:02.410Z,17.33
2018-11-20T08:16:10.822Z,18.17
2018-11-20T08:19:06.463Z,16.93
2018-11-20T08:22:14.861Z,14.97
2018-11-20T08:25:16.008Z,15.90
2018-11-20T08:28:24.440Z,16.03
2018-11-20T08:31:33.103Z,17.23
2018-11-20T08:34:21.390Z,14.47
2018-11-20T08:37:03.140Z,16.63
2018-11-20T08:40:01.468Z,16.60
2018-11-20T08:42:45.775Z,17.80
2018-11-20T08:45:35.792Z,16.60
2018-11-20T08:48:23.657Z,17.53
2018-11-20T08:51:27.719Z,17.33
2018-11-20T08:54:35.527Z,17.03
2018-11-20T08:57:43.389Z,15.73
2018-11-20T09:00:51.856Z,18.10
2018-11-20T09:04:00.658Z,16.40
2018-11-20T09:07:09.053Z,16.17
2018-11-20T09:10:17.535Z,17.33
2018-11-20T09:13:26.077Z,17.13
2018-11-20T09:16:13.854Z,18.60
2018-11-20T09:19:01.572Z,17.20
2018-11-20T09:21:43.646Z,17.90
2018-11-20T09:24:35.724Z,18.50
2018-11-20T09:27:34.013Z,18.00
2018-11-20T09:30:32.857Z,16.83
2018-11-20T09:33:15.680Z,16.00
2018-11-20T09:36:11.589Z,16.37
2018-11-20T09:39:00.919Z,16.97
2018-11-20T09:41:57.118Z,17.73
2018-11-20T09:44:56.367Z,17.50
2018-11-20T09:47:46.599Z,16.73
2018-11-20T09:50:43.955Z,22.47
2018-11-20T09:53:39.262Z,18.43
2018-11-20T09:56:41.181Z,18.17
2018-11-20T09:59:33.829Z,18.47
2018-11-20T10:02:20.617Z,18.10
2018-11-20T10:05:08.095Z,18.20
2018-11-20T10:07:56.959Z,17.70
2018-11-20T10:10:44.921Z,19.13
2018-11-20T10:13:41.127Z,20.33
2018-11-20T10:16:33.511Z,19.77
2018-11-20T10:19:21.368Z,19.97
2018-11-20T10:22:09.108Z,19.33
2018-11-20T10:25:14.201Z,22.03
2018-11-20T10:27:59.512Z,19.90
2018-11-20T10:30:48.927Z,19.30
2018-11-20T10:33:36.416Z,19.17
2018-11-20T10:36:20.154Z,20.17
2018-11-20T10:39:03.972Z,19.43
2018-11-20T10:42:05.573Z,19.17
2018-11-20T10:44:55.095Z,20.27
2018-11-20T10:47:44.399Z,18.93
2018-11-20T10:50:32.012Z,18.90
2018-11-20T10:53:10.366Z,20.70
2018-11-20T10:56:04.020Z,22.10
2018-11-20T10:58:57.553Z,20.67
2018-11-20T11:01:45.773Z,20.83
2018-11-20T11:04:33.212Z,21.60
2018-11-20T11:07:28.555Z,21.07
2018-11-20T11:10:23.335Z,22.10
2018-11-20T11:13:29.402Z,20.53
2018-11-20T11:16:10.830Z,21.87
2018-11-20T11:18:53.909Z,22.17
2018-11-20T11:21:43.183Z,20.60
2018-11-20T11:24:31.120Z,22.00
2018-11-20T11:27:18.837Z,21.10
2018-11-20T11:30:09.155Z,22.63
2018-11-20T11:32:57.057Z,20.47
2018-11-20T11:35:45.261Z,22.53
2018-11-20T11:38:43.193Z,23.60
2018-11-20T11:41:35.324Z,22.60
2018-11-20T11:44:30.968Z,21.80
2018-11-20T11:47:32.291Z,22.60
2018-11-20T11:50:19.780Z,23.70
2018-11-20T11:53:08.519Z,22.03
2018-11-20T11:56:16.090Z,22.33
2018-11-20T11:59:23.733Z,22.40
2018-11-20T12:05:07.080Z,23.07
2018-11-20T12:07:49.935Z,22.40
2018-11-20T12:10:30.818Z,23.97
2018-11-20T12:16:03.155Z,24.63
2018-11-20T12:18:58.314Z,24.53
2018-11-20T12:22:00.230Z,25.97
2018-11-20T12:25:04.674Z,23.67
2018-11-20T12:27:52.514Z,24.60
2018-11-20T12:30:42.283Z,24.27
2018-11-20T12:33:30.155Z,24.87
2018-11-20T12:36:14.466Z,26.67
2018-11-20T12:39:02.705Z,27.67
2018-11-20T12:41:53.660Z,24.53
2018-11-20T12:44:38.377Z,25.70
2018-11-20T12:47:18.746Z,25.33
2018-11-20T12:50:10.669Z,22.57
2018-11-20T12:52:57.387Z,24.87
2018-11-20T12:55:45.880Z,25.00
2018-11-20T12:58:37.426Z,24.70
2018-11-20T13:01:25.154Z,27.47
2018-11-20T13:04:20.120Z,23.20
2018-11-20T13:07:17.723Z,25.27
2018-11-20T13:10:04.941Z,24.23
2018-11-20T13:12:52.710Z,24.20
2018-11-20T13:15:38.559Z,23.90
2018-11-20T13:18:26.341Z,25.47
2018-11-20T13:21:14.081Z,22.10
2018-11-20T13:24:02.721Z,23.20
2018-11-20T13:26:50.585Z,23.20
2018-11-20T13:29:40.280Z,24.37
2018-11-20T13:32:29.761Z,23.67
2018-11-20T13:36:03.254Z,28.77
2018-11-20T13:39:11.874Z,22.63
2018-11-20T13:42:23.344Z,23.33
2018-11-20T13:45:20.308Z,24.40
2018-11-20T13:48:17.900Z,25.33
2018-11-20T13:51:25.507Z,24.40
2018-11-20T13:54:33.081Z,24.33
2018-11-20T13:57:40.735Z,24.97
2018-11-20T14:00:48.865Z,25.77
2018-11-20T14:03:56.381Z,28.23
2018-11-20T14:07:03.975Z,25.00
2018-11-20T14:10:12.024Z,26.10
2018-11-20T14:13:19.621Z,25.53
2018-11-20T14:16:27.218Z,30.47
2018-11-20T14:19:34.763Z,28.40
2018-11-20T14:22:42.416Z,26.00
2018-11-20T14:25:50.246Z,26.30
2018-11-20T14:28:57.832Z,25.43
2018-11-20T14:32:05.362Z,25.63
2018-11-20T14:35:13.203Z,25.33
2018-11-20T14:38:21.039Z,27.17
2018-11-20T14:41:28.604Z,27.00
2018-11-20T14:44:36.232Z,24.03
2018-11-20T14:47:43.792Z,24.60
2018-11-20T14:50:51.783Z,23.17
2018-11-20T14:53:59.367Z,25.10
2018-11-20T14:57:06.949Z,22.73
2018-11-20T15:00:14.511Z,27.03
2018-11-20T15:03:22.067Z,27.83
2018-11-20T15:06:21.842Z,25.90
2018-11-20T15:09:29.742Z,26.90
2018-11-20T15:12:37.315Z,25.27
2018-11-20T15:15:45.663Z,22.00
2018-11-20T15:18:53.229Z,22.00
2018-11-20T15:22:00.794Z,20.80
2018-11-20T15:25:08.445Z,22.03
2018-11-20T15:28:15.988Z,19.67
2018-11-20T15:31:23.569Z,19.53
2018-11-20T15:34:31.130Z,19.23
2018-11-20T15:37:29.041Z,20.57
2018-11-20T15:40:15.713Z,19.47
2018-11-20T15:43:07.324Z,18.27
2018-11-20T15:45:49.855Z,17.33
2018-11-20T15:48:57.515Z,17.30
2018-11-20T15:52:05.227Z,17.53
2018-11-20T15:55:06.283Z,17.60
2018-11-20T15:58:13.894Z,18.50
2018-11-20T16:01:23.177Z,14.80
2018-11-20T16:04:29.543Z,19.37
2018-11-20T16:07:37.108Z,16.30
2018-11-20T16:10:44.700Z,16.90
2018-11-20T16:13:52.325Z,17.67
2018-11-20T16:16:59.958Z,16.77
2018-11-20T16:20:07.902Z,15.60
2018-11-20T16:23:15.482Z,16.83
2018-11-20T16:26:23.060Z,18.80
2018-11-20T16:29:30.932Z,16.20
2018-11-20T16:32:38.501Z,15.07
2018-11-20T16:35:46.504Z,14.77
2018-11-20T16:38:54.457Z,14.70
2018-11-20T16:42:02.025Z,15.03
2018-11-20T16:45:09.845Z,14.40
2018-11-20T16:48:17.675Z,13.47
2018-11-20T16:51:25.233Z,15.63
2018-11-20T16:54:32.789Z,15.67
2018-11-20T16:57:40.380Z,14.43
2018-11-20T17:00:47.932Z,15.03
2018-11-20T17:03:55.641Z,15.53
2018-11-20T17:06:55.850Z,14.17
2018-11-20T17:10:03.888Z,14.07
2018-11-20T17:13:11.625Z,14.50
2018-11-20T17:16:19.381Z,15.47
2018-11-20T17:19:27.190Z,15.20
2018-11-20T17:22:34.757Z,15.40
2018-11-20T17:25:42.306Z,14.73
2018-11-20T17:28:49.848Z,14.23
2018-11-20T17:31:49.448Z,15.50
2018-11-20T17:34:56.980Z,15.27
2018-11-20T17:37:57.598Z,15.97
2018-11-20T17:41:05.465Z,15.50
2018-11-20T17:44:12.992Z,14.77
2018-11-20T17:47:20.548Z,15.47
2018-11-20T17:50:28.418Z,15.10
2018-11-20T17:53:36.004Z,15.73
2018-11-20T17:56:43.584Z,21.37
2018-11-20T17:59:51.171Z,15.57
2018-11-20T18:02:58.808Z,16.20
2018-11-20T18:06:06.375Z,19.47
2018-11-20T18:09:13.936Z,18.10
2018-11-20T18:12:21.480Z,16.13
2018-11-20T18:15:29.035Z,17.50
2018-11-20T18:18:36.616Z,16.50
2018-11-20T18:21:44.185Z,17.73
2018-11-20T18:24:51.758Z,17.87
2018-11-20T18:27:49.628Z,17.07
2018-11-20T18:30:57.188Z,18.43
2018-11-20T18:34:05.000Z,18.43
2018-11-20T18:37:12.545Z,19.43
2018-11-20T18:40:20.570Z,18.23
2018-11-20T18:43:28.634Z,17.97
2018-11-20T18:46:36.210Z,15.80
2018-11-20T18:49:44.199Z,17.20
2018-11-20T18:52:51.837Z,16.80
2018-11-20T18:55:59.397Z,18.57
2018-11-20T18:58:54.969Z,18.90
2018-11-20T19:01:50.416Z,20.60
2018-11-20T19:04:58.457Z,16.47
2018-11-20T19:07:56.682Z,20.30
2018-11-20T19:11:04.392Z,19.47
2018-11-20T19:14:12.013Z,18.40
2018-11-20T19:17:19.882Z,20.53
2018-11-20T19:20:27.404Z,17.90
2018-11-20T19:23:34.952Z,18.67
2018-11-20T19:26:30.497Z,18.27
2018-11-20T19:29:38.073Z,22.70
2018-11-20T19:32:45.663Z,20.97
2018-11-20T19:35:43.177Z,21.27
2018-11-20T19:38:50.738Z,19.70
2018-11-20T19:41:58.824Z,19.43
2018-11-20T19:45:06.601Z,18.70
2018-11-20T19:48:14.856Z,20.63
2018-11-20T19:51:23.429Z,19.47
2018-11-20T19:54:31.464Z,21.73
2018-11-20T19:57:39.545Z,21.60
2018-11-20T20:00:47.986Z,21.73
2018-11-20T20:03:55.602Z,20.93
2018-11-20T20:07:03.305Z,39.87
2018-11-20T20:10:17.614Z,59.93
2018-11-20T20:13:23.207Z,21.30
2018-11-20T20:16:29.531Z,21.03
2018-11-20T20:19:37.115Z,65.53
2018-11-20T20:22:45.289Z,131.17
2018-11-20T20:25:53.116Z,53.47
2018-11-20T20:29:00.859Z,22.90
2018-11-20T20:32:08.873Z,20.70
2018-11-20T20:35:16.604Z,21.70
2018-11-20T20:38:25.265Z,30.23
2018-11-20T20:41:52.344Z,20.53
2018-11-20T20:44:54.004Z,21.17
2018-11-20T20:48:02.302Z,21.93
2018-11-20T20:50:58.979Z,23.30
2018-11-20T20:54:12.372Z,21.43
2018-11-20T20:57:15.655Z,23.70
2018-11-20T21:00:25.108Z,23.27
2018-11-20T21:03:32.961Z,21.77
2018-11-20T21:06:33.754Z,24.23
2018-11-20T21:09:41.691Z,21.37
2018-11-20T21:12:49.256Z,20.73
2018-11-20T21:15:57.612Z,20.97
2018-11-20T21:19:06.217Z,22.63
2018-11-20T21:22:14.109Z,23.97
2018-11-20T21:25:22.144Z,23.07
2018-11-20T21:28:30.379Z,22.30
2018-11-20T21:31:38.463Z,23.77
2018-11-20T21:34:46.445Z,24.53
2018-11-20T21:37:54.442Z,23.83
2018-11-20T21:41:01.997Z,25.77
2018-11-20T21:44:10.448Z,26.30
2018-11-20T21:47:18.676Z,25.03
2018-11-20T21:50:27.610Z,24.93
2018-11-20T21:53:36.162Z,25.37
2018-11-20T21:56:44.382Z,25.03
2018-11-20T22:00:13.867Z,24.90
2018-11-20T22:03:22.561Z,26.90
2018-11-20T22:06:21.519Z,26.10
2018-11-20T22:09:29.779Z,24.97
2018-11-20T22:12:37.354Z,25.10
2018-11-20T22:15:45.672Z,25.50
2018-11-20T22:18:53.592Z,27.30
2018-11-20T22:21:56.554Z,28.17
2018-11-20T22:25:04.758Z,26.37
2018-11-20T22:28:04.780Z,25.37
2018-11-20T22:31:12.424Z,27.07
2018-11-20T22:34:20.843Z,26.90
2018-11-20T22:37:29.164Z,24.87
2018-11-20T22:40:36.739Z,29.93
2018-11-20T22:43:44.834Z,28.97
2018-11-20T22:46:53.203Z,25.30
2018-11-20T22:50:01.635Z,27.60
2018-11-20T22:53:09.672Z,27.17
2018-11-20T22:56:17.862Z,27.07
2018-11-20T22:59:26.273Z,28.83
2018-11-20T23:02:34.208Z,31.50
2018-11-20T23:05:41.007Z,26.47
2018-11-20T23:08:29.929Z,27.83
2018-11-20T23:11:18.393Z,26.60
2018-11-20T23:14:08.040Z,28.53
2018-11-20T23:16:37.253Z,26.73
2018-11-20T23:19:07.282Z,27.93
2018-11-20T23:21:55.768Z,29.67
2018-11-20T23:24:44.658Z,28.37
2018-11-20T23:27:33.129Z,28.03
2018-11-20T23:30:22.420Z,27.37
2018-11-20T23:32:51.384Z,27.67
2018-11-20T23:35:21.121Z,28.57
2018-11-20T23:37:50.427Z,26.80
2018-11-20T23:40:19.404Z,29.30
2018-11-20T23:42:48.382Z,26.10
2018-11-20T23:45:17.340Z,28.67
2018-11-20T23:47:47.205Z,28.43
2018-11-20T23:50:17.032Z,26.00
2018-11-20T23:52:46.662Z,26.20
2018-11-20T23:55:16.082Z,30.47
2018-11-20T23:57:45.828Z,31.03
